Time;durP1;ratioP1;P1;durP2;ratioP2;P2;SDS_P1;SDS_P2;PMS_P1;PMS_P2;Temp;Humidity;BMP_temperature;BMP_pressure;BME280_temperature;BME280_humidity;BME280_pressure;Samples;Min_cycle;Max_cycle;Signal;HPM_P1;HPM_P2
2022/05/29 00:00:33;;;;;;;4.25;0.60;;;10.30;99.90;;;;;;4989225;28;20062;-81
2022/05/29 00:03:01;;;;;;;3.88;0.70;;;10.30;99.90;;;;;;4997547;28;20482;-77
2022/05/29 00:05:28;;;;;;;2.10;0.45;;;10.30;99.90;;;;;;4988614;28;20069;-80
2022/05/29 00:07:56;;;;;;;3.42;0.60;;;10.30;99.90;;;;;;4955430;28;20037;-77
2022/05/29 00:10:25;;;;;;;3.58;0.50;;;10.40;99.90;;;;;;4972889;28;20041;-79
2022/05/29 00:12:51;;;;;;;5.00;0.65;;;10.30;99.90;;;;;;5023395;28;20025;-80
2022/05/29 00:15:20;;;;;;;4.38;0.70;;;10.40;99.90;;;;;;5010749;28;21902;-80
2022/05/29 00:17:47;;;;;;;2.40;0.40;;;10.40;99.90;;;;;;5009256;28;20029;-82
2022/05/29 00:20:14;;;;;;;2.95;0.50;;;10.40;99.90;;;;;;4995362;28;20045;-82
2022/05/29 00:22:41;;;;;;;4.55;0.45;;;10.40;99.90;;;;;;5040045;28;20044;-82
2022/05/29 00:25:10;;;;;;;3.10;0.50;;;10.40;99.90;;;;;;5028390;28;20032;-84
2022/05/29 00:27:36;;;;;;;3.65;0.60;;;10.40;99.90;;;;;;5010127;28;20033;-86
2022/05/29 00:30:04;;;;;;;3.88;0.75;;;10.50;99.90;;;;;;5025664;28;20029;-86
2022/05/29 00:32:34;;;;;;;5.78;1.13;;;10.50;99.90;;;;;;5007773;28;20055;-87
2022/05/29 00:35:01;;;;;;;6.55;0.50;;;10.50;99.90;;;;;;5009192;28;20040;-88
2022/05/29 00:37:33;;;;;;;3.72;0.60;;;10.50;99.90;;;;;;4993105;28;20038;-89
2022/05/29 00:39:59;;;;;;;4.35;0.50;;;10.50;99.90;;;;;;5026854;28;20392;-81
2022/05/29 00:42:36;;;;;;;2.45;0.57;;;10.50;99.90;;;;;;5016902;28;20044;-81
2022/05/29 00:50:04;;;;;;;4.10;0.60;;;10.50;99.90;;;;;;4953121;28;20518;-82
2022/05/29 00:54:01;;;;;;;5.68;0.80;;;10.50;99.90;;;;;;4934850;29;20615;-84
2022/05/29 00:56:44;;;;;;;3.38;0.60;;;10.40;99.90;;;;;;4949847;28;20483;-82
2022/05/29 00:59:31;;;;;;;6.20;0.60;;;10.30;99.90;;;;;;4972946;28;20057;-79
2022/05/29 01:02:47;;;;;;;5.07;1.25;;;10.20;99.90;;;;;;4938006;28;20388;-78
2022/05/29 01:06:05;;;;;;;6.82;0.60;;;10.10;99.90;;;;;;4926457;29;20047;-82
2022/05/29 01:09:06;;;;;;;5.13;0.70;;;10.00;99.90;;;;;;4918651;29;20036;-87
2022/05/29 01:12:30;;;;;;;7.57;0.88;;;9.90;99.90;;;;;;4950615;28;20130;-84
2022/05/29 01:15:30;;;;;;;4.05;0.60;;;9.90;99.90;;;;;;4902644;28;20047;-82
2022/05/29 01:18:55;;;;;;;3.25;0.60;;;9.90;99.90;;;;;;4939605;28;20039;-79
2022/05/29 01:22:05;;;;;;;2.83;0.60;;;9.90;99.90;;;;;;4985865;28;20038;-81
2022/05/29 01:25:20;;;;;;;6.07;1.65;;;10.00;99.90;;;;;;5006977;28;20037;-78
2022/05/29 01:28:13;;;;;;;6.27;1.10;;;10.00;99.90;;;;;;5002713;28;20042;-78
2022/05/29 01:31:09;;;;;;;5.85;1.20;;;10.00;99.90;;;;;;4992869;28;20292;-79
2022/05/29 01:34:01;;;;;;;5.80;1.10;;;10.00;99.90;;;;;;5009379;28;20045;-78
2022/05/29 01:37:06;;;;;;;5.45;1.02;;;10.10;99.90;;;;;;5014801;28;20041;-79
2022/05/29 01:39:38;;;;;;;2.80;0.68;;;10.10;99.90;;;;;;5014577;28;20037;-80
2022/05/29 01:42:13;;;;;;;2.67;0.60;;;10.20;99.90;;;;;;5046365;28;20017;-80
2022/05/29 01:45:01;;;;;;;2.28;0.40;;;10.10;99.90;;;;;;5032818;28;20036;-81
2022/05/29 01:47:53;;;;;;;3.83;1.00;;;10.10;99.90;;;;;;5027506;28;20052;-82
2022/05/29 01:54:27;;;;;;;3.72;0.60;;;10.10;99.90;;;;;;5034729;28;20043;-79
2022/05/29 01:57:43;;;;;;;3.45;0.70;;;10.10;99.90;;;;;;5029592;28;20021;-79
2022/05/29 02:00:32;;;;;;;3.40;0.60;;;10.10;99.90;;;;;;5013931;28;20041;-79
2022/05/29 02:10:15;;;;;;;4.43;1.15;;;10.10;99.90;;;;;;5048746;28;20037;-79
2022/05/29 02:12:52;;;;;;;3.38;0.90;;;10.10;99.90;;;;;;5023957;28;20532;-79
2022/05/29 02:16:09;;;;;;;4.55;1.00;;;10.10;99.90;;;;;;5049021;28;20139;-80
2022/05/29 02:19:32;;;;;;;4.10;1.30;;;10.10;99.90;;;;;;5016061;28;20041;-79
2022/05/29 02:22:27;;;;;;;6.93;1.17;;;10.10;99.90;;;;;;5050134;28;20029;-80
2022/05/29 02:25:44;;;;;;;3.28;0.70;;;10.10;99.90;;;;;;5010909;28;20389;-79
2022/05/29 02:28:55;;;;;;;5.93;0.90;;;10.10;99.90;;;;;;4986154;28;20397;-79
2022/05/29 02:32:06;;;;;;;5.15;1.10;;;10.10;99.90;;;;;;4998776;28;20528;-79
2022/05/29 02:34:55;;;;;;;5.18;1.10;;;10.00;99.90;;;;;;4996825;28;20445;-78
2022/05/29 02:37:59;;;;;;;6.68;1.00;;;9.90;99.90;;;;;;5014180;28;20511;-78
2022/05/29 02:41:47;;;;;;;3.78;1.10;;;9.90;99.90;;;;;;5050519;28;20120;-78
2022/05/29 02:45:15;;;;;;;8.77;1.65;;;9.90;99.90;;;;;;5034268;28;20469;-78
2022/05/29 02:48:25;;;;;;;3.65;1.00;;;9.90;99.90;;;;;;5018425;28;20431;-78
2022/05/29 02:55:13;;;;;;;3.83;1.08;;;9.90;99.90;;;;;;4987727;28;20041;-79
2022/05/29 02:58:41;;;;;;;3.38;1.25;;;9.90;99.90;;;;;;4997608;28;20042;-79
2022/05/29 03:01:56;;;;;;;6.05;1.02;;;9.90;99.90;;;;;;4966210;28;20375;-79
2022/05/29 03:05:00;;;;;;;4.95;1.00;;;10.00;99.90;;;;;;4985215;28;20037;-80
2022/05/29 03:07:51;;;;;;;5.00;0.80;;;10.00;99.90;;;;;;4967166;28;20034;-80
2022/05/29 03:10:43;;;;;;;3.60;1.10;;;10.00;99.90;;;;;;5002198;28;20026;-80
2022/05/29 03:17:45;;;;;;;4.43;0.70;;;9.90;99.90;;;;;;4947420;28;20601;-79
2022/05/29 03:20:20;;;;;;;3.47;0.80;;;10.00;99.90;;;;;;4966186;28;20058;-81
2022/05/29 03:23:10;;;;;;;3.85;0.60;;;9.90;99.90;;;;;;4959370;28;20050;-81
2022/05/29 03:29:44;;;;;;;3.42;0.75;;;10.00;99.90;;;;;;4984102;28;20651;-80
2022/05/29 03:32:59;;;;;;;2.22;0.63;;;9.90;99.90;;;;;;4985669;28;20037;-81
2022/05/29 03:36:06;;;;;;;3.90;0.95;;;10.00;99.90;;;;;;4989511;28;20048;-81
2022/05/29 03:38:55;;;;;;;3.10;0.60;;;10.00;99.90;;;;;;4969812;28;20505;-84
2022/05/29 03:41:50;;;;;;;4.45;0.73;;;10.00;99.90;;;;;;4975047;28;20034;-84
2022/05/29 03:44:20;;;;;;;9.30;1.35;;;10.00;99.90;;;;;;5005598;28;20465;-84
2022/05/29 03:46:47;;;;;;;3.05;0.93;;;10.00;99.90;;;;;;4990015;28;20038;-83
2022/05/29 03:49:20;;;;;;;2.88;0.60;;;10.10;99.90;;;;;;4985340;28;20386;-83
2022/05/29 03:51:47;;;;;;;4.00;0.82;;;10.10;99.90;;;;;;5020707;28;20048;-83
2022/05/29 03:54:13;;;;;;;5.53;0.80;;;10.20;99.90;;;;;;5009576;28;20026;-83
2022/05/29 03:56:40;;;;;;;4.13;0.88;;;10.20;99.90;;;;;;5024780;28;20037;-83
2022/05/29 03:59:07;;;;;;;3.38;0.90;;;10.20;99.90;;;;;;4991958;28;20045;-83
2022/05/29 04:01:34;;;;;;;5.55;0.90;;;10.30;99.90;;;;;;4992433;28;20049;-83
2022/05/29 04:04:01;;;;;;;6.00;1.00;;;10.30;99.90;;;;;;5008278;28;20065;-84
2022/05/29 04:06:28;;;;;;;6.43;0.90;;;10.30;99.90;;;;;;4992617;28;20666;-84
2022/05/29 04:14:29;;;;;;;6.13;1.20;;;10.50;99.90;;;;;;5009467;28;20048;-83
2022/05/29 04:16:55;;;;;;;5.47;1.10;;;10.50;99.90;;;;;;5008097;28;20064;-84
2022/05/29 04:19:22;;;;;;;6.22;1.30;;;10.60;99.90;;;;;;5024576;28;20034;-85
2022/05/29 04:21:49;;;;;;;3.47;0.82;;;10.70;99.90;;;;;;5008387;28;20037;-84
2022/05/29 04:24:19;;;;;;;5.45;1.17;;;10.80;99.90;;;;;;4991499;28;20044;-83
2022/05/29 04:26:49;;;;;;;4.78;1.00;;;10.80;99.90;;;;;;4990113;28;20386;-81
2022/05/29 04:29:18;;;;;;;5.57;1.10;;;10.80;99.90;;;;;;5024491;28;20033;-81
2022/05/29 04:34:30;;;;;;;5.97;0.90;;;10.80;99.90;;;;;;5009394;28;20049;-81
2022/05/29 04:36:57;;;;;;;4.53;1.02;;;10.80;99.90;;;;;;5032479;28;20048;-82
2022/05/29 04:39:24;;;;;;;4.38;0.88;;;10.70;99.90;;;;;;4991428;28;20045;-82
2022/05/29 04:41:50;;;;;;;3.72;0.90;;;10.70;99.90;;;;;;5022506;28;20038;-81
2022/05/29 04:44:17;;;;;;;8.20;1.33;;;10.60;99.90;;;;;;5023338;28;20033;-81
2022/05/29 04:46:44;;;;;;;4.30;0.80;;;10.50;99.90;;;;;;5023087;28;20042;-84
2022/05/29 04:49:10;;;;;;;5.90;0.73;;;10.40;99.90;;;;;;5020791;28;20041;-84
2022/05/29 04:51:37;;;;;;;2.95;0.85;;;10.40;99.90;;;;;;4982570;28;20042;-85
2022/05/29 04:54:03;;;;;;;2.72;0.65;;;10.20;99.90;;;;;;4993470;28;20037;-84
2022/05/29 04:56:30;;;;;;;4.40;0.80;;;10.20;99.90;;;;;;5006679;28;20885;-82
2022/05/29 04:58:56;;;;;;;5.00;0.70;;;10.20;99.90;;;;;;5006469;28;20053;-82
2022/05/29 05:01:23;;;;;;;4.50;0.70;;;10.20;99.90;;;;;;5005653;28;20052;-82
2022/05/29 05:03:50;;;;;;;4.28;0.95;;;10.10;99.90;;;;;;5023379;28;20044;-81
2022/05/29 05:06:16;;;;;;;3.95;0.88;;;10.20;99.90;;;;;;4993478;28;20052;-81
2022/05/29 05:08:43;;;;;;;4.30;0.70;;;10.20;99.90;;;;;;5008452;28;20026;-82
2022/05/29 05:11:09;;;;;;;3.03;0.70;;;10.30;99.90;;;;;;5024413;28;20482;-81
2022/05/29 05:13:36;;;;;;;6.25;0.95;;;10.40;99.90;;;;;;4992749;28;20037;-81
2022/05/29 05:16:03;;;;;;;2.47;0.52;;;10.60;99.90;;;;;;5036325;28;20034;-81
2022/05/29 05:18:30;;;;;;;3.20;0.77;;;10.70;99.90;;;;;;5002252;28;20045;-81
2022/05/29 05:20:57;;;;;;;2.88;0.77;;;10.70;99.90;;;;;;4991412;28;20041;-81
2022/05/29 05:23:23;;;;;;;4.20;1.10;;;10.80;99.90;;;;;;5040808;28;20029;-81
2022/05/29 05:25:50;;;;;;;4.65;1.02;;;10.80;99.90;;;;;;4979119;28;21237;-81
2022/05/29 05:28:16;;;;;;;4.78;0.98;;;10.80;99.90;;;;;;5004944;28;20029;-81
2022/05/29 05:30:44;;;;;;;5.55;0.90;;;10.80;99.90;;;;;;5004813;28;20397;-85
2022/05/29 05:33:11;;;;;;;2.20;0.65;;;10.90;99.90;;;;;;4999107;28;20022;-85
2022/05/29 05:35:37;;;;;;;3.17;0.73;;;10.80;99.90;;;;;;5010322;28;20042;-85
2022/05/29 05:38:05;;;;;;;2.80;0.70;;;10.90;99.90;;;;;;4994859;28;20113;-85
2022/05/29 05:40:32;;;;;;;5.03;0.85;;;10.90;99.90;;;;;;5011665;28;20037;-85
2022/05/29 05:47:48;;;;;;;5.30;0.65;;;11.00;99.90;;;;;;5029452;28;20400;-84
2022/05/29 05:50:31;;;;;;;3.40;0.70;;;11.00;99.90;;;;;;5002904;28;20040;-82
2022/05/29 05:53:39;;;;;;;;;;;;;;;;;;;;;
2022/05/29 05:57:29;;;;;;;4.07;1.17;;;11.10;99.90;;;;;;5029903;28;20497;-78
2022/05/29 06:00:35;;;;;;;1.83;0.50;;;11.10;99.90;;;;;;5012952;28;20041;-79
2022/05/29 06:03:38;;;;;;;3.03;0.73;;;11.20;99.90;;;;;;4995444;28;20040;-78
2022/05/29 06:06:38;;;;;;;4.32;0.70;;;11.40;99.90;;;;;;5008636;28;20054;-78
2022/05/29 06:12:47;;;;;;;2.63;0.55;;;11.60;99.90;;;;;;5002490;28;20044;-79
2022/05/29 06:16:23;;;;;;;5.10;0.90;;;11.80;99.90;;;;;;4988609;28;20042;-79
2022/05/29 06:18:52;;;;;;;4.13;0.75;;;12.10;99.90;;;;;;5008387;28;20042;-79
2022/05/29 06:21:46;;;;;;;4.50;0.90;;;12.30;99.90;;;;;;5010932;28;20041;-79
2022/05/29 06:25:10;;;;;;;2.25;0.77;;;12.60;99.90;;;;;;4946143;28;21349;-79
2022/05/29 06:28:04;;;;;;;3.42;0.80;;;12.80;99.90;;;;;;4973512;28;20034;-79
2022/05/29 06:30:44;;;;;;;4.22;0.60;;;12.80;99.90;;;;;;4919317;28;20053;-79
2022/05/29 06:33:39;;;;;;;3.55;0.52;;;12.80;99.90;;;;;;4969972;28;20515;-79
2022/05/29 06:41:15;;;;;;;2.13;0.50;;;12.80;99.90;;;;;;4967046;28;20039;-82
2022/05/29 06:44:49;;;;;;;3.05;0.50;;;12.80;99.90;;;;;;4924340;28;20146;-87
2022/05/29 06:47:50;;;;;;;18.10;9.45;;;12.70;99.90;;;;;;4968879;28;20050;-82
2022/05/29 06:50:31;;;;;;;3.92;1.90;;;12.50;99.90;;;;;;4941402;28;20051;-82
2022/05/29 06:53:27;;;;;;;3.13;1.13;;;12.30;99.90;;;;;;4953267;28;20053;-84
2022/05/29 06:56:51;;;;;;;3.78;0.80;;;12.10;99.90;;;;;;4941449;28;20505;-83
2022/05/29 06:59:29;;;;;;;2.40;0.60;;;11.90;99.90;;;;;;4973983;28;20739;-85
2022/05/29 07:08:49;;;;;;;4.35;0.60;;;11.40;99.90;;;;;;4989180;28;20038;-84
2022/05/29 07:11:45;;;;;;;1.80;0.60;;;11.60;99.90;;;;;;4986418;28;20038;-82
2022/05/29 07:14:23;;;;;;;2.70;0.60;;;11.80;99.90;;;;;;4973376;28;20060;-81
2022/05/29 07:20:37;;;;;;;2.22;0.60;;;12.20;99.90;;;;;;4982726;28;20288;-82
2022/05/29 07:23:14;;;;;;;4.75;0.70;;;12.30;99.90;;;;;;4956078;28;20049;-80
2022/05/29 07:34:27;;;;;;;3.08;0.60;;;12.50;99.90;;;;;;4945048;28;20419;-83
2022/05/29 07:37:22;;;;;;;2.70;0.50;;;12.80;99.90;;;;;;4973899;28;20057;-84
2022/05/29 07:40:18;;;;;;;3.13;0.50;;;12.90;99.90;;;;;;5004823;28;20855;-84
2022/05/29 07:45:58;;;;;;;3.17;0.45;;;13.00;99.90;;;;;;5016882;28;20547;-84
2022/05/29 07:48:37;;;;;;;2.63;0.50;;;12.90;99.90;;;;;;4988493;28;20513;-82
2022/05/29 07:51:04;;;;;;;2.00;0.57;;;12.90;99.90;;;;;;5003552;28;20410;-82
2022/05/29 07:53:34;;;;;;;3.65;0.50;;;12.70;99.90;;;;;;4987526;28;20034;-82
2022/05/29 07:56:02;;;;;;;4.20;0.57;;;12.60;99.90;;;;;;5007292;28;20034;-82
2022/05/29 07:58:59;;;;;;;2.05;0.30;;;12.50;99.90;;;;;;5023126;28;20505;-83
2022/05/29 08:01:47;;;;;;;3.38;0.50;;;12.40;99.90;;;;;;5023612;28;20034;-83
2022/05/29 08:04:31;;;;;;;2.88;0.50;;;12.40;99.90;;;;;;5011797;28;20048;-83
2022/05/29 08:06:59;;;;;;;4.03;1.13;;;12.50;99.90;;;;;;5023542;28;20041;-83
2022/05/29 08:09:27;;;;;;;4.60;0.70;;;12.50;99.90;;;;;;5027401;28;20049;-83
2022/05/29 08:12:15;;;;;;;3.22;0.63;;;12.60;99.90;;;;;;5026214;28;20488;-77
2022/05/29 08:15:05;;;;;;;4.53;0.50;;;12.80;99.90;;;;;;5009709;28;20357;-78
2022/05/29 08:17:54;;;;;;;3.38;0.63;;;12.80;99.90;;;;;;5002808;28;20045;-78
2022/05/29 08:20:29;;;;;;;4.97;0.60;;;13.00;99.90;;;;;;5008963;28;20025;-77
2022/05/29 08:23:09;;;;;;;2.38;0.50;;;13.10;99.90;;;;;;4975338;28;20041;-82
2022/05/29 08:31:57;;;;;;;2.63;0.50;;;13.40;99.90;;;;;;5021566;28;20028;-83
2022/05/29 08:34:48;;;;;;;;;;;;;;;;;;;;;
2022/05/29 08:37:26;;;;;;;3.97;0.70;;;13.80;99.90;;;;;;4968377;28;20484;-84
2022/05/29 08:40:16;;;;;;;2.08;0.75;;;14.10;99.90;;;;;;4997647;28;20061;-83
2022/05/29 08:43:01;;;;;;;4.05;0.63;;;14.30;99.90;;;;;;4998238;28;20026;-84
2022/05/29 08:45:34;;;;;;;2.78;0.90;;;14.20;99.90;;;;;;4984279;28;20057;-83
2022/05/29 08:48:02;;;;;;;3.47;0.47;;;14.20;99.90;;;;;;4981159;28;20047;-83
2022/05/29 08:51:21;;;;;;;3.25;0.63;;;14.30;99.90;;;;;;4979825;28;20034;-85
2022/05/29 08:54:09;;;;;;;2.72;0.50;;;14.30;99.90;;;;;;4969166;28;20054;-83
2022/05/29 08:56:50;;;;;;;3.50;0.50;;;14.40;99.90;;;;;;4963424;28;20034;-83
2022/05/29 08:59:26;;;;;;;3.50;0.70;;;14.50;99.90;;;;;;4979707;28;20503;-82
2022/05/29 09:02:19;;;;;;;2.58;0.60;;;14.60;99.90;;;;;;4953065;28;20046;-82
2022/05/29 09:04:53;;;;;;;2.85;0.70;;;14.80;99.90;;;;;;4960572;28;20034;-82
2022/05/29 09:07:22;;;;;;;4.10;0.70;;;15.00;99.90;;;;;;4975717;28;20038;-82
2022/05/29 09:10:00;;;;;;;3.33;0.73;;;15.00;99.90;;;;;;4969402;28;20030;-79
2022/05/29 09:12:41;;;;;;;6.32;0.82;;;14.90;99.90;;;;;;4999973;28;20086;-79
2022/05/29 09:15:14;;;;;;;4.25;0.63;;;14.80;99.90;;;;;;5007384;28;20369;-80
2022/05/29 09:17:47;;;;;;;3.45;0.60;;;14.60;99.90;;;;;;4986181;28;20030;-80
2022/05/29 09:20:35;;;;;;;2.25;0.43;;;14.50;99.90;;;;;;4993446;28;20528;-80
2022/05/29 09:23:05;;;;;;;4.70;0.50;;;14.40;99.90;;;;;;5004752;28;20040;-82
2022/05/29 09:25:35;;;;;;;3.53;0.50;;;14.30;99.90;;;;;;5009836;28;20033;-82
2022/05/29 09:28:10;;;;;;;4.63;0.50;;;14.20;99.90;;;;;;4987972;28;20034;-82
2022/05/29 09:30:40;;;;;;;5.80;0.70;;;14.10;99.90;;;;;;5006226;28;20397;-79
2022/05/29 09:33:28;;;;;;;4.47;0.60;;;14.10;99.90;;;;;;5007536;28;20037;-79
2022/05/29 09:36:24;;;;;;;4.57;0.60;;;14.00;99.90;;;;;;5008782;28;20030;-78
2022/05/29 09:39:05;;;;;;;4.15;0.60;;;14.10;99.90;;;;;;4993480;28;20038;-78
2022/05/29 09:41:55;;;;;;;2.30;0.30;;;14.10;99.90;;;;;;4990554;28;20021;-82
2022/05/29 09:45:10;;;;;;;4.50;0.63;;;14.00;99.90;;;;;;5009323;28;20022;-82
2022/05/29 09:51:28;;;;;;;3.40;0.40;;;14.00;99.90;;;;;;5040387;28;20033;-82
2022/05/29 09:54:09;;;;;;;5.35;0.60;;;14.20;99.90;;;;;;5009203;28;20358;-82
2022/05/29 09:56:55;;;;;;;6.72;0.80;;;14.70;99.90;;;;;;5009917;28;20069;-82
2022/05/29 09:59:47;;;;;;;3.08;0.55;;;15.10;99.90;;;;;;4976148;28;20029;-82
2022/05/29 10:02:42;;;;;;;4.03;0.60;;;15.10;99.90;;;;;;5014189;28;20041;-82
2022/05/29 10:05:38;;;;;;;5.45;0.85;;;15.00;99.90;;;;;;4984588;28;20030;-82
2022/05/29 10:08:26;;;;;;;5.45;0.65;;;14.90;99.90;;;;;;5001790;28;20053;-82
2022/05/29 10:11:11;;;;;;;4.20;0.73;;;14.90;99.90;;;;;;5004766;28;20034;-83
2022/05/29 10:13:41;;;;;;;4.93;0.60;;;15.00;99.90;;;;;;5005603;28;20049;-84
2022/05/29 10:16:43;;;;;;;6.47;2.05;;;15.20;99.90;;;;;;4977273;28;20525;-82
2022/05/29 10:19:40;;;;;;;6.15;1.50;;;15.30;99.90;;;;;;4987297;28;20061;-83
2022/05/29 10:22:37;;;;;;;5.07;1.30;;;15.30;99.90;;;;;;5004456;28;20045;-82
2022/05/29 10:25:37;;;;;;;3.88;0.80;;;15.30;99.90;;;;;;5017849;28;20044;-83
2022/05/29 10:28:30;;;;;;;6.45;3.00;;;14.90;99.90;;;;;;5023640;28;20392;-82
2022/05/29 10:31:22;;;;;;;6.28;2.65;;;14.50;99.90;;;;;;5031520;28;20017;-83
2022/05/29 10:34:02;;;;;;;6.93;1.70;;;14.10;99.90;;;;;;5045235;28;20029;-82
2022/05/29 10:36:40;;;;;;;6.53;0.82;;;13.80;99.90;;;;;;5040320;28;20044;-82
2022/05/29 10:39:24;;;;;;;6.05;0.70;;;13.60;99.90;;;;;;5013806;28;20376;-82
2022/05/29 10:41:54;;;;;;;3.83;0.52;;;13.50;99.90;;;;;;5039682;28;20032;-83
2022/05/29 10:45:08;;;;;;;9.35;0.70;;;13.40;99.90;;;;;;5028664;28;20481;-83
2022/05/29 10:47:56;;;;;;;1.90;0.40;;;13.50;99.90;;;;;;5040570;28;20520;-82
2022/05/29 10:50:41;;;;;;;4.43;0.80;;;13.60;99.90;;;;;;5029795;28;20052;-83
2022/05/29 10:53:42;;;;;;;4.32;0.40;;;13.70;99.90;;;;;;5013512;28;20052;-83
2022/05/29 11:05:33;;;;;;;5.22;0.55;;;14.30;99.90;;;;;;4989857;28;20037;-84
2022/05/29 11:09:23;;;;;;;4.15;0.60;;;14.70;99.90;;;;;;5006768;28;20044;-84
2022/05/29 11:12:14;;;;;;;9.68;0.60;;;15.50;99.90;;;;;;4984537;28;20035;-84
2022/05/29 11:18:32;;;;;;;3.22;0.40;;;16.70;99.90;;;;;;4966546;28;20050;-84
2022/05/29 11:21:39;;;;;;;5.60;0.75;;;16.90;99.90;;;;;;4969399;28;20053;-84
2022/05/29 11:24:52;;;;;;;3.70;0.50;;;17.40;99.90;;;;;;4940704;28;20053;-83
2022/05/29 11:28:23;;;;;;;3.95;0.50;;;17.80;99.90;;;;;;4953531;28;20049;-84
2022/05/29 11:31:05;;;;;;;5.00;0.80;;;17.60;99.90;;;;;;4964476;28;20034;-85
2022/05/29 11:34:22;;;;;;;4.15;0.60;;;17.30;99.90;;;;;;4950485;28;20231;-84
2022/05/29 11:37:47;;;;;;;3.88;0.55;;;17.30;99.90;;;;;;4961424;28;20054;-85
2022/05/29 11:41:00;;;;;;;5.03;0.75;;;17.30;99.90;;;;;;4954672;28;20042;-84
2022/05/29 11:43:29;;;;;;;5.15;0.40;;;17.30;99.90;;;;;;5019289;28;20037;-84
2022/05/29 11:51:56;;;;;;;2.75;0.50;;;17.90;99.90;;;;;;5040303;28;20033;-84
2022/05/29 11:54:29;;;;;;;6.38;0.60;;;18.20;99.90;;;;;;5045115;28;20013;-84
2022/05/29 11:57:12;;;;;;;5.25;0.70;;;18.20;99.90;;;;;;5006042;28;20499;-84
2022/05/29 11:59:57;;;;;;;5.68;0.57;;;18.00;99.90;;;;;;5009564;28;20048;-85
2022/05/29 12:02:24;;;;;;;3.88;0.50;;;18.00;99.90;;;;;;5023366;28;20040;-84
2022/05/29 12:05:02;;;;;;;3.50;0.60;;;18.30;99.90;;;;;;5017293;28;21354;-84
2022/05/29 12:07:46;;;;;;;4.65;0.50;;;18.70;99.90;;;;;;5024297;28;20036;-84
2022/05/29 12:10:26;;;;;;;5.72;0.93;;;19.10;99.90;;;;;;5008279;28;20029;-84
2022/05/29 12:13:05;;;;;;;5.40;0.70;;;19.30;99.40;;;;;;5026105;28;20624;-86
2022/05/29 12:15:33;;;;;;;3.35;0.40;;;19.70;98.40;;;;;;5025157;28;20017;-86
2022/05/29 12:18:16;;;;;;;3.83;0.45;;;20.00;98.00;;;;;;5010898;28;20480;-86
2022/05/29 12:20:44;;;;;;;5.85;0.98;;;20.00;96.50;;;;;;5028239;28;20495;-86
2022/05/29 12:23:26;;;;;;;3.50;0.55;;;20.10;95.70;;;;;;4998524;28;20026;-86
2022/05/29 12:26:14;;;;;;;2.67;0.47;;;20.00;95.30;;;;;;5013114;28;20476;-88
2022/05/29 12:29:09;;;;;;;2.63;0.60;;;19.80;96.00;;;;;;5022494;28;20044;-87
2022/05/29 12:31:40;;;;;;;2.05;0.40;;;20.20;95.70;;;;;;5018096;28;20025;-86
2022/05/29 12:34:15;;;;;;;2.38;0.40;;;20.90;94.70;;;;;;5028058;28;20040;-87
2022/05/29 12:37:07;;;;;;;2.00;0.38;;;21.00;94.30;;;;;;5028702;28;20028;-86
2022/05/29 12:40:12;;;;;;;;;;;20.60;93.40;;;;;;5031059;28;20033;-86
2022/05/29 12:43:19;;;;;;;2.42;0.40;;;20.10;93.20;;;;;;4997103;28;19913;-87
2022/05/29 12:46:46;;;;;;;0.82;0.20;;;19.60;93.30;;;;;;4990022;28;20044;-86
2022/05/29 12:49:55;;;;;;;1.30;0.30;;;19.10;93.40;;;;;;4964472;28;20054;-87
2022/05/29 12:53:09;;;;;;;2.17;0.40;;;18.80;92.80;;;;;;4994097;28;20026;-88
2022/05/29 12:56:55;;;;;;;3.72;0.30;;;18.50;92.80;;;;;;5001371;28;20033;-87
2022/05/29 13:00:22;;;;;;;1.35;0.35;;;18.30;92.80;;;;;;5007172;28;20044;-85
2022/05/29 13:03:17;;;;;;;2.85;0.30;;;18.30;93.10;;;;;;4950769;28;20057;-85
2022/05/29 13:06:44;;;;;;;1.92;0.40;;;18.50;93.20;;;;;;4964010;28;20026;-86
2022/05/29 13:17:33;;;;;;;2.92;0.30;;;19.30;92.30;;;;;;4987597;28;20042;-85
2022/05/29 13:20:36;;;;;;;4.75;1.02;;;18.90;91.60;;;;;;5022952;28;20597;-86
2022/05/29 13:23:14;;;;;;;4.25;1.40;;;18.60;91.80;;;;;;4998608;28;20593;-86
2022/05/29 13:26:24;;;;;;;2.78;0.85;;;18.50;91.90;;;;;;5031121;28;20040;-86
2022/05/29 13:32:14;;;;;;;1.83;0.30;;;18.50;91.70;;;;;;5008928;28;20045;-84
2022/05/29 13:35:07;;;;;;;2.42;0.40;;;18.50;91.60;;;;;;5018999;28;20048;-87
2022/05/29 13:41:12;;;;;;;1.77;0.30;;;18.80;91.40;;;;;;4982977;28;20042;-86
2022/05/29 13:43:41;;;;;;;1.25;0.30;;;18.70;90.80;;;;;;4976194;28;20045;-86
2022/05/29 13:46:19;;;;;;;1.17;0.30;;;18.60;90.60;;;;;;4978995;28;20031;-86
2022/05/29 13:49:03;;;;;;;2.40;0.30;;;18.40;90.90;;;;;;4954804;28;20050;-86
2022/05/29 13:51:41;;;;;;;2.13;0.65;;;18.20;91.40;;;;;;4966684;28;22563;-86
2022/05/29 13:54:12;;;;;;;2.78;0.40;;;18.10;92.00;;;;;;4987280;28;20057;-86
2022/05/29 13:57:17;;;;;;;3.15;0.40;;;18.00;92.00;;;;;;4964174;28;20046;-85
2022/05/29 14:05:43;;;;;;;3.35;0.30;;;17.90;92.30;;;;;;4964487;28;20026;-86
2022/05/29 14:08:19;;;;;;;2.05;0.50;;;17.70;92.20;;;;;;4964991;28;20042;-85
2022/05/29 14:10:59;;;;;;;3.70;0.40;;;17.50;92.50;;;;;;4984716;28;20058;-85
2022/05/29 14:13:46;;;;;;;1.58;0.30;;;17.30;92.70;;;;;;4980315;28;20029;-85
2022/05/29 14:16:30;;;;;;;2.80;0.30;;;17.20;93.10;;;;;;4985216;28;20033;-85
2022/05/29 14:19:02;;;;;;;3.45;0.30;;;17.10;93.50;;;;;;4998405;28;20064;-86
2022/05/29 14:21:51;;;;;;;2.00;0.32;;;17.00;93.50;;;;;;4966165;28;20041;-85
2022/05/29 14:24:39;;;;;;;3.05;0.40;;;17.10;93.40;;;;;;5003837;28;20046;-85
2022/05/29 14:28:03;;;;;;;1.90;0.20;;;17.30;93.10;;;;;;4983955;28;20042;-85
2022/05/29 14:30:29;;;;;;;3.78;0.43;;;17.40;92.70;;;;;;4972302;28;20026;-85
2022/05/29 14:33:28;;;;;;;3.67;0.40;;;17.50;92.60;;;;;;5016748;28;20385;-85
2022/05/29 14:36:23;;;;;;;1.42;0.20;;;17.50;92.20;;;;;;5009179;28;20029;-85
2022/05/29 14:39:27;;;;;;;3.15;0.63;;;17.70;92.40;;;;;;4989312;28;20046;-85
2022/05/29 14:42:45;;;;;;;4.22;0.40;;;18.00;92.10;;;;;;5010492;28;20026;-85
2022/05/29 14:50:47;;;;;;;2.08;0.30;;;18.10;92.10;;;;;;5019185;28;20057;-85
2022/05/29 14:53:39;;;;;;;2.80;0.40;;;17.70;92.10;;;;;;5005369;28;20420;-85
2022/05/29 14:57:03;;;;;;;2.35;0.30;;;17.40;92.40;;;;;;5016472;28;20049;-85
2022/05/29 15:00:39;;;;;;;1.92;0.20;;;17.00;92.40;;;;;;5010144;28;20053;-85
2022/05/29 15:04:07;;;;;;;2.28;0.40;;;16.60;92.80;;;;;;4999172;28;20045;-85
2022/05/29 15:10:36;;;;;;;1.98;0.50;;;16.40;93.00;;;;;;5008934;28;20110;-85
2022/05/29 15:14:30;;;;;;;2.13;0.30;;;16.30;93.30;;;;;;4964909;28;20053;-85
2022/05/29 15:17:34;;;;;;;4.03;0.50;;;16.30;93.50;;;;;;4959849;28;20480;-84
2022/05/29 15:27:41;;;;;;;3.33;0.40;;;16.50;93.90;;;;;;4930043;28;20058;-85
2022/05/29 15:30:36;;;;;;;3.65;0.30;;;16.40;93.90;;;;;;4919742;28;20506;-85
2022/05/29 15:33:10;;;;;;;3.67;0.47;;;16.40;94.10;;;;;;4936732;28;20102;-85
2022/05/29 15:36:06;;;;;;;2.90;0.50;;;16.40;94.20;;;;;;4967476;28;20043;-84
2022/05/29 15:40:17;;;;;;;2.63;0.40;;;16.30;94.30;;;;;;4889777;29;20118;-85
2022/05/29 15:50:46;;;;;;;;;;;16.20;94.80;;;;;;4989208;28;20493;-84
2022/05/29 15:54:40;;;;;;;4.50;0.63;;;16.10;95.20;;;;;;4978944;28;19917;-86
2022/05/29 15:58:00;;;;;;;2.92;0.43;;;16.10;95.20;;;;;;4971090;28;20277;-85
2022/05/29 16:01:22;;;;;;;2.92;0.30;;;16.10;94.90;;;;;;4975772;28;20041;-86
2022/05/29 16:04:49;;;;;;;2.60;0.30;;;16.10;94.20;;;;;;4984057;28;20038;-85
2022/05/29 16:08:35;;;;;;;2.25;0.30;;;16.10;94.30;;;;;;4981165;28;20053;-86
2022/05/29 16:11:53;;;;;;;2.03;0.30;;;16.20;94.00;;;;;;4911249;29;20052;-85
2022/05/29 16:14:45;;;;;;;2.95;0.28;;;16.20;94.00;;;;;;4923691;28;20052;-85
2022/05/29 16:17:48;;;;;;;1.70;0.35;;;16.20;94.10;;;;;;4937463;28;20039;-86
2022/05/29 16:20:40;;;;;;;2.97;0.40;;;16.20;93.80;;;;;;4929084;28;20384;-86
2022/05/29 16:23:26;;;;;;;1.73;0.30;;;16.10;93.60;;;;;;4964299;28;20034;-85
2022/05/29 16:25:59;;;;;;;2.92;0.45;;;16.00;93.50;;;;;;4936041;28;20039;-85
2022/05/29 16:28:32;;;;;;;2.90;0.30;;;15.90;93.70;;;;;;4960407;28;20039;-85
2022/05/29 16:31:23;;;;;;;2.50;0.50;;;15.80;93.70;;;;;;4946668;28;20038;-85
2022/05/29 16:34:00;;;;;;;2.88;0.43;;;15.50;94.20;;;;;;4947662;28;20110;-85
2022/05/29 16:36:36;;;;;;;2.15;0.30;;;15.40;94.50;;;;;;4926068;28;20043;-85
2022/05/29 16:48:16;;;;;;;3.20;0.38;;;15.00;95.80;;;;;;4954379;28;20052;-85
2022/05/29 16:51:11;;;;;;;4.30;0.55;;;15.00;96.00;;;;;;4980495;28;20504;-85
2022/05/29 16:54:01;;;;;;;4.43;0.40;;;15.00;96.20;;;;;;5022618;28;20496;-85
2022/05/29 16:56:51;;;;;;;3.08;0.35;;;14.90;96.30;;;;;;5035517;28;20033;-85
2022/05/29 16:59:29;;;;;;;4.47;0.60;;;14.80;96.50;;;;;;5020886;28;20026;-85
2022/05/29 17:02:21;;;;;;;5.55;0.50;;;14.70;96.70;;;;;;5019630;28;20029;-85
2022/05/29 17:05:01;;;;;;;;;;;14.70;96.90;;;;;;4978899;28;20046;-85
2022/05/29 17:07:33;;;;;;;5.47;0.70;;;14.70;97.10;;;;;;4975847;28;19940;-86
2022/05/29 17:10:24;;;;;;;3.10;0.30;;;14.70;97.20;;;;;;4980957;28;20162;-85
2022/05/29 17:13:09;;;;;;;2.97;0.32;;;14.70;97.40;;;;;;4958456;28;20057;-85